Time;durP1;ratioP1;P1;durP2;ratioP2;P2;SDS_P1;SDS_P2;PMS_P1;PMS_P2;Temp;Humidity;BMP_temperature;BMP_pressure;BME280_temperature;BME280_humidity;BME280_pressure;Samples;Min_cycle;Max_cycle;Signal;HPM_P1;HPM_P2
2024/04/15 00:01:46;;;;;;;9.27;2.70;;;16.80;99.90;;;;;;5344800;26;20716;-75
2024/04/15 00:04:14;;;;;;;4.60;2.53;;;16.80;99.90;;;;;;5344087;26;20071;-74
2024/04/15 00:06:40;;;;;;;4.47;2.35;;;16.80;99.90;;;;;;5358622;26;20011;-75
2024/04/15 00:09:09;;;;;;;3.67;2.30;;;16.90;99.90;;;;;;5379718;26;20001;-74
2024/04/15 00:11:35;;;;;;;4.88;1.98;;;16.90;99.90;;;;;;5379588;26;19996;-76
2024/04/15 00:14:03;;;;;;;7.18;2.30;;;16.90;99.90;;;;;;5379532;26;20460;-74
2024/04/15 00:16:31;;;;;;;4.93;2.58;;;17.00;99.90;;;;;;5380963;26;20007;-73
2024/04/15 00:19:00;;;;;;;3.55;2.40;;;16.90;99.90;;;;;;5364426;26;20005;-74
2024/04/15 00:21:26;;;;;;;4.90;2.25;;;17.00;99.90;;;;;;5348066;26;20050;-74
2024/04/15 00:23:54;;;;;;;5.60;2.63;;;17.00;99.90;;;;;;5347676;26;20647;-75
2024/04/15 00:26:20;;;;;;;4.00;2.40;;;17.10;99.90;;;;;;5348116;26;20433;-73
2024/04/15 00:28:48;;;;;;;4.55;2.40;;;17.10;99.90;;;;;;5347628;26;20452;-74
2024/04/15 00:31:14;;;;;;;5.35;2.00;;;17.10;99.90;;;;;;5382066;26;20010;-74
2024/04/15 00:33:48;;;;;;;4.18;2.17;;;17.20;99.90;;;;;;5382870;26;20004;-75
2024/04/15 00:36:14;;;;;;;6.13;2.40;;;17.30;99.90;;;;;;5383099;26;19996;-74
2024/04/15 00:38:43;;;;;;;4.97;2.47;;;17.30;99.90;;;;;;5382897;26;20019;-74
2024/04/15 00:41:08;;;;;;;5.72;2.92;;;17.20;99.90;;;;;;5382351;26;19996;-74
2024/04/15 00:43:37;;;;;;;4.68;2.83;;;17.20;99.90;;;;;;5383008;26;20111;-75
2024/04/15 00:46:03;;;;;;;11.65;3.38;;;17.20;99.90;;;;;;5382797;26;20003;-74
2024/04/15 00:48:32;;;;;;;8.38;3.13;;;17.10;99.90;;;;;;5371541;26;20676;-74
2024/04/15 00:51:02;;;;;;;6.80;2.40;;;17.10;99.90;;;;;;5347365;26;20039;-73
2024/04/15 00:53:31;;;;;;;7.60;2.53;;;17.10;99.90;;;;;;5347216;26;20061;-74
2024/04/15 00:56:00;;;;;;;6.18;2.13;;;17.10;99.90;;;;;;5347251;26;20012;-74
2024/04/15 00:58:29;;;;;;;3.45;1.83;;;17.10;99.90;;;;;;5347474;26;20074;-74
2024/04/15 01:00:57;;;;;;;4.25;2.15;;;17.10;99.90;;;;;;5347327;26;19997;-73
2024/04/15 01:03:27;;;;;;;8.68;2.33;;;17.10;99.90;;;;;;5348192;26;19997;-73
2024/04/15 01:05:53;;;;;;;3.33;2.05;;;17.10;99.90;;;;;;5348200;26;20000;-74
2024/04/15 01:08:24;;;;;;;10.27;2.60;;;17.10;99.90;;;;;;5350536;26;20005;-74
2024/04/15 01:10:50;;;;;;;6.88;2.75;;;17.10;99.90;;;;;;5383604;26;20042;-74
2024/04/15 01:13:18;;;;;;;8.85;2.03;;;17.10;99.90;;;;;;5381431;26;20000;-73
2024/04/15 01:15:44;;;;;;;9.35;2.60;;;17.00;99.90;;;;;;5347833;26;19997;-74
2024/04/15 01:18:12;;;;;;;3.22;2.00;;;16.90;99.90;;;;;;5347151;26;20012;-73
2024/04/15 01:20:38;;;;;;;6.40;1.90;;;16.80;99.90;;;;;;5349613;26;20001;-75
2024/04/15 01:23:08;;;;;;;2.83;1.80;;;16.70;99.90;;;;;;5351655;26;20031;-74
2024/04/15 01:25:36;;;;;;;3.38;2.05;;;16.60;99.90;;;;;;5381376;26;20069;-73
2024/04/15 01:28:06;;;;;;;3.88;1.90;;;16.50;99.90;;;;;;5374728;26;20023;-73
2024/04/15 01:30:31;;;;;;;7.03;2.22;;;16.50;99.90;;;;;;5371010;26;20001;-73
2024/04/15 01:33:00;;;;;;;6.72;2.65;;;16.40;99.90;;;;;;5349972;26;20001;-74
2024/04/15 01:35:26;;;;;;;6.65;2.15;;;16.30;99.90;;;;;;5359694;26;20012;-74
2024/04/15 01:37:54;;;;;;;3.15;2.15;;;16.30;99.90;;;;;;5360914;26;20001;-73
2024/04/15 01:40:20;;;;;;;3.45;2.10;;;16.20;99.90;;;;;;5357638;26;20001;-74
2024/04/15 01:42:51;;;;;;;7.75;2.30;;;16.10;99.90;;;;;;5357266;26;20007;-74
2024/04/15 01:45:17;;;;;;;6.47;2.40;;;16.00;99.90;;;;;;5376138;26;20007;-73
2024/04/15 01:47:46;;;;;;;5.97;2.33;;;15.90;99.90;;;;;;5395094;26;20000;-73
2024/04/15 01:50:13;;;;;;;5.75;1.98;;;15.80;99.90;;;;;;5394008;26;19997;-73
2024/04/15 01:52:41;;;;;;;5.03;2.10;;;15.80;99.90;;;;;;5393735;26;20023;-74
2024/04/15 01:55:08;;;;;;;4.47;2.13;;;15.70;99.90;;;;;;5393289;26;20028;-73
2024/04/15 01:57:36;;;;;;;4.03;1.95;;;15.70;99.90;;;;;;5383398;26;19996;-73
2024/04/15 02:00:06;;;;;;;2.63;1.90;;;15.60;99.90;;;;;;5379012;26;19996;-73
2024/04/15 02:02:35;;;;;;;9.23;1.98;;;15.60;99.90;;;;;;5381008;26;20000;-74
2024/04/15 02:05:02;;;;;;;7.07;2.60;;;15.60;99.90;;;;;;5381389;26;20662;-73
2024/04/15 02:07:30;;;;;;;3.13;1.95;;;15.60;99.90;;;;;;5380770;26;19996;-74
2024/04/15 02:09:56;;;;;;;7.72;1.75;;;15.70;99.90;;;;;;5381185;26;20328;-75
2024/04/15 02:12:25;;;;;;;3.35;1.95;;;15.70;99.90;;;;;;5381052;26;19996;-73
2024/04/15 02:14:50;;;;;;;6.47;1.95;;;15.80;99.90;;;;;;5352364;26;20475;-74
2024/04/15 02:17:21;;;;;;;6.53;1.67;;;15.80;99.90;;;;;;5345927;26;19996;-74
2024/04/15 02:19:47;;;;;;;3.95;1.67;;;15.80;99.90;;;;;;5346665;26;19993;-74
2024/04/15 02:22:15;;;;;;;3.58;1.80;;;15.90;99.90;;;;;;5345908;26;20001;-74
2024/04/15 02:24:41;;;;;;;3.25;1.88;;;15.90;99.90;;;;;;5346575;26;19997;-73
2024/04/15 02:27:10;;;;;;;7.85;2.35;;;15.90;99.90;;;;;;5339075;26;20024;-73
2024/04/15 02:29:36;;;;;;;9.65;2.08;;;15.90;99.90;;;;;;5356590;26;20000;-73
2024/04/15 02:32:04;;;;;;;7.40;1.95;;;15.80;99.90;;;;;;5380921;26;20000;-73
2024/04/15 02:34:33;;;;;;;6.47;1.60;;;15.80;99.90;;;;;;5380691;26;20003;-73
2024/04/15 02:37:01;;;;;;;4.97;1.80;;;15.80;99.90;;;;;;5380346;26;20542;-73
2024/04/15 02:39:27;;;;;;;5.78;2.00;;;15.90;99.90;;;;;;5379331;26;19996;-74
2024/04/15 02:41:55;;;;;;;4.03;1.80;;;15.80;99.90;;;;;;5379938;26;20073;-74
2024/04/15 02:44:21;;;;;;;5.15;1.30;;;15.80;99.90;;;;;;5380629;26;20006;-74
2024/04/15 02:46:49;;;;;;;3.53;1.52;;;15.90;99.90;;;;;;5380255;26;20000;-74
2024/04/15 02:49:15;;;;;;;4.10;1.90;;;15.80;99.90;;;;;;5362604;26;20000;-73
2024/04/15 02:51:46;;;;;;;4.20;1.70;;;15.80;99.90;;;;;;5346274;26;20005;-74
2024/04/15 02:54:12;;;;;;;5.60;1.40;;;15.80;99.90;;;;;;5345447;26;20070;-73
2024/04/15 02:56:41;;;;;;;4.05;1.42;;;15.80;99.90;;;;;;5345201;26;20001;-73
2024/04/15 02:59:07;;;;;;;7.47;1.73;;;15.70;99.90;;;;;;5345432;26;19996;-73
2024/04/15 03:01:35;;;;;;;5.20;1.60;;;15.70;99.90;;;;;;5345212;26;20074;-73
2024/04/15 03:04:01;;;;;;;6.47;1.60;;;15.70;99.90;;;;;;5362665;26;20345;-73
2024/04/15 03:06:29;;;;;;;5.07;1.60;;;15.70;99.90;;;;;;5354804;26;20059;-73
2024/04/15 03:08:58;;;;;;;4.78;1.60;;;15.70;99.90;;;;;;5345766;26;20071;-73
2024/04/15 03:11:26;;;;;;;7.57;1.70;;;15.70;99.90;;;;;;5346175;26;20028;-74
2024/04/15 03:13:52;;;;;;;4.50;1.73;;;15.70;99.90;;;;;;5363300;26;20014;-74
2024/04/15 03:16:21;;;;;;;4.75;2.65;;;15.70;99.90;;;;;;5379853;26;20003;-73
2024/04/15 03:18:47;;;;;;;4.85;1.52;;;15.60;99.90;;;;;;5379587;26;20000;-74
2024/04/15 03:21:15;;;;;;;5.72;1.83;;;15.70;99.90;;;;;;5352488;26;20058;-74
2024/04/15 03:23:41;;;;;;;7.10;1.65;;;15.70;99.90;;;;;;5345329;26;20007;-74
2024/04/15 03:26:12;;;;;;;4.80;1.60;;;15.70;99.90;;;;;;5346533;26;20001;-74
2024/04/15 03:28:37;;;;;;;2.50;1.52;;;15.60;99.90;;;;;;5339840;26;20015;-73
2024/04/15 03:31:06;;;;;;;3.35;1.70;;;15.60;99.90;;;;;;5380075;26;20004;-73
2024/04/15 03:33:32;;;;;;;3.58;1.83;;;15.60;99.90;;;;;;5382724;26;19996;-73
2024/04/15 03:36:00;;;;;;;4.80;1.40;;;15.60;99.90;;;;;;5381003;26;20090;-74
2024/04/15 03:38:28;;;;;;;5.97;1.80;;;15.50;99.90;;;;;;5380774;26;20015;-74
2024/04/15 03:40:54;;;;;;;3.28;1.42;;;15.50;99.90;;;;;;5381616;26;20024;-73
2024/04/15 03:43:25;;;;;;;6.22;1.88;;;15.50;99.90;;;;;;5381207;26;20520;-74
2024/04/15 03:45:51;;;;;;;6.93;2.08;;;15.40;99.90;;;;;;5352830;26;20000;-73
2024/04/15 03:48:19;;;;;;;6.72;1.60;;;15.40;99.90;;;;;;5360078;26;20001;-74
2024/04/15 03:50:45;;;;;;;8.85;1.80;;;15.30;99.90;;;;;;5363757;26;19996;-73
2024/04/15 03:53:13;;;;;;;6.90;1.70;;;15.30;99.90;;;;;;5370137;26;20048;-73
2024/04/15 03:55:39;;;;;;;5.63;1.65;;;15.30;99.90;;;;;;5367111;26;20067;-73
2024/04/15 03:58:08;;;;;;;7.50;1.85;;;15.40;99.90;;;;;;5380793;21;20013;-76
2024/04/15 04:00:36;;;;;;;3.45;1.90;;;15.30;99.90;;;;;;5305988;27;20009;-75
2024/04/15 04:03:05;;;;;;;5.50;1.90;;;15.30;99.90;;;;;;5300179;27;20006;-74
2024/04/15 04:05:31;;;;;;;5.20;2.28;;;15.30;99.90;;;;;;5307723;26;20054;-74
2024/04/15 04:07:59;;;;;;;7.85;1.60;;;15.30;99.90;;;;;;5293360;27;20006;-74
2024/04/15 04:10:29;;;;;;;8.02;2.15;;;15.20;99.90;;;;;;5297923;27;20002;-75
2024/04/15 04:12:55;;;;;;;8.30;2.20;;;15.20;99.90;;;;;;5284646;27;20085;-75
2024/04/15 04:15:23;;;;;;;9.05;2.45;;;15.20;99.90;;;;;;5293421;27;20096;-74
2024/04/15 04:17:51;;;;;;;5.57;2.08;;;15.10;99.90;;;;;;5293431;27;20708;-75
2024/04/15 04:20:20;;;;;;;5.28;2.55;;;15.10;99.90;;;;;;5293069;27;20020;-75
2024/04/15 04:22:45;;;;;;;4.72;2.65;;;15.00;99.90;;;;;;5293366;27;20002;-75
2024/04/15 04:25:14;;;;;;;7.93;2.45;;;15.00;99.90;;;;;;5293883;27;20006;-76
2024/04/15 04:27:39;;;;;;;5.95;2.67;;;15.00;99.90;;;;;;5298541;27;20001;-74
2024/04/15 04:30:10;;;;;;;9.27;3.45;;;14.90;99.90;;;;;;5277523;26;20091;-75
2024/04/15 04:32:36;;;;;;;11.43;3.15;;;14.90;99.90;;;;;;5298357;27;20060;-75
2024/04/15 04:35:07;;;;;;;7.13;2.80;;;14.90;99.90;;;;;;5294968;27;20506;-75
2024/04/15 04:37:33;;;;;;;13.38;3.03;;;14.90;99.90;;;;;;5297914;27;20020;-76
2024/04/15 04:40:01;;;;;;;5.68;2.95;;;14.80;99.90;;;;;;5299017;27;20455;-75
2024/04/15 04:42:27;;;;;;;5.47;2.75;;;14.80;99.90;;;;;;5286964;27;20002;-76
2024/04/15 04:44:56;;;;;;;11.05;3.10;;;14.80;99.90;;;;;;5299060;26;20025;-73
2024/04/15 04:47:22;;;;;;;6.25;2.63;;;14.80;99.90;;;;;;5296007;27;19998;-76
2024/04/15 04:49:50;;;;;;;5.07;3.08;;;14.70;99.90;;;;;;5293071;27;20021;-76
2024/04/15 04:52:19;;;;;;;5.55;2.63;;;14.70;99.90;;;;;;5254660;27;20051;-75
2024/04/15 04:54:51;;;;;;;9.98;3.13;;;14.80;99.90;;;;;;5296621;26;20001;-76
2024/04/15 04:57:17;;;;;;;7.28;2.70;;;14.80;99.90;;;;;;5282920;27;20056;-75
2024/04/15 04:59:45;;;;;;;6.93;2.60;;;14.90;99.90;;;;;;5288002;27;20006;-77
2024/04/15 05:02:11;;;;;;;9.73;2.60;;;14.90;99.90;;;;;;5274222;27;20002;-75
2024/04/15 05:04:39;;;;;;;11.15;3.13;;;14.80;99.90;;;;;;5297547;27;20505;-75
2024/04/15 05:07:05;;;;;;;6.05;2.72;;;14.90;99.90;;;;;;5293190;27;20025;-76
2024/04/15 05:09:36;;;;;;;9.85;2.40;;;14.80;99.90;;;;;;5306911;27;20438;-75
2024/04/15 05:12:03;;;;;;;4.32;2.20;;;14.90;99.90;;;;;;5293027;27;20039;-77
2024/04/15 05:14:32;;;;;;;6.05;2.47;;;14.90;99.90;;;;;;5296928;27;20003;-75
2024/04/15 05:16:58;;;;;;;7.05;2.10;;;14.90;99.90;;;;;;5289323;27;20006;-76
2024/04/15 05:19:26;;;;;;;7.95;2.33;;;14.80;99.90;;;;;;5293077;27;20405;-76
2024/04/15 05:21:52;;;;;;;8.15;2.38;;;14.80;99.90;;;;;;5285807;27;20343;-75
2024/04/15 05:24:20;;;;;;;7.45;3.22;;;14.80;99.90;;;;;;5273863;27;20001;-74
2024/04/15 05:26:49;;;;;;;5.05;2.55;;;14.80;99.90;;;;;;5291746;27;20176;-76
2024/04/15 05:29:17;;;;;;;9.65;2.50;;;14.80;99.90;;;;;;5287947;27;20007;-76
2024/04/15 05:31:43;;;;;;;7.00;2.78;;;14.80;99.90;;;;;;5292695;27;20435;-75
2024/04/15 05:34:11;;;;;;;5.10;1.98;;;14.80;99.90;;;;;;5291475;27;20185;-75
2024/04/15 05:36:37;;;;;;;6.45;2.35;;;14.80;99.90;;;;;;5308806;26;20326;-75
2024/04/15 05:39:05;;;;;;;9.90;2.35;;;14.80;99.90;;;;;;5298406;27;20021;-76
2024/04/15 05:41:32;;;;;;;11.75;2.40;;;14.80;99.90;;;;;;5293840;27;20075;-75
2024/04/15 05:44:02;;;;;;;4.88;1.70;;;14.80;99.90;;;;;;5312604;27;19999;-76
2024/04/15 05:46:28;;;;;;;10.93;2.30;;;14.90;99.90;;;;;;5313876;26;20056;-75
2024/04/15 05:48:57;;;;;;;7.00;1.75;;;14.90;99.90;;;;;;5297240;27;20002;-75
2024/04/15 05:51:22;;;;;;;7.50;2.67;;;15.00;99.90;;;;;;5277923;27;20072;-75
2024/04/15 05:53:51;;;;;;;6.60;1.73;;;14.90;99.90;;;;;;5276349;27;20475;-76
2024/04/15 05:56:16;;;;;;;7.63;1.88;;;15.00;99.90;;;;;;5276747;27;20017;-75
2024/04/15 05:58:47;;;;;;;7.43;2.78;;;14.90;99.90;;;;;;5277610;27;20002;-75
2024/04/15 06:01:15;;;;;;;4.45;1.67;;;14.90;99.90;;;;;;5277896;27;20140;-75
2024/04/15 06:03:43;;;;;;;5.68;2.22;;;14.80;99.90;;;;;;5279174;27;20340;-75
2024/04/15 06:06:09;;;;;;;4.30;1.10;;;14.80;99.90;;;;;;5279554;27;20003;-75
2024/04/15 06:08:37;;;;;;;8.82;1.40;;;14.80;99.90;;;;;;5279668;27;20006;-76
2024/04/15 06:11:03;;;;;;;4.60;1.75;;;14.80;99.90;;;;;;5279361;27;20057;-76
2024/04/15 06:13:32;;;;;;;7.55;1.92;;;14.80;99.90;;;;;;5279171;27;20002;-76
2024/04/15 06:15:57;;;;;;;11.27;1.83;;;14.90;99.90;;;;;;5278539;27;20009;-77
2024/04/15 06:18:28;;;;;;;7.57;1.73;;;14.90;99.90;;;;;;5276772;27;20002;-75
2024/04/15 06:20:54;;;;;;;8.52;2.03;;;14.90;99.90;;;;;;5278177;27;20456;-74
2024/04/15 06:23:22;;;;;;;6.28;1.88;;;14.90;99.90;;;;;;5278385;27;20013;-74
2024/04/15 06:25:50;;;;;;;8.10;1.73;;;14.90;99.90;;;;;;5277887;27;20359;-75
2024/04/15 06:28:18;;;;;;;8.02;1.80;;;14.90;99.90;;;;;;5278494;27;20072;-75
2024/04/15 06:30:45;;;;;;;6.65;1.77;;;14.80;99.90;;;;;;5268432;27;20002;-75
2024/04/15 06:33:13;;;;;;;13.43;1.55;;;14.70;99.90;;;;;;5276322;27;20342;-76
2024/04/15 06:35:42;;;;;;;6.05;1.75;;;14.70;99.90;;;;;;5276670;27;20003;-76
2024/04/15 06:38:13;;;;;;;4.60;1.30;;;14.70;99.90;;;;;;5272825;27;20006;-76
2024/04/15 06:40:39;;;;;;;6.10;1.73;;;14.70;99.90;;;;;;5261654;27;20076;-75
2024/04/15 06:43:08;;;;;;;5.20;1.65;;;14.70;99.90;;;;;;5276971;27;20008;-76
2024/04/15 06:45:34;;;;;;;7.55;2.13;;;14.70;99.90;;;;;;5247845;27;20018;-74
2024/04/15 06:48:02;;;;;;;5.07;1.77;;;14.70;99.90;;;;;;5244857;27;20003;-76
2024/04/15 06:50:28;;;;;;;5.63;1.77;;;14.60;99.90;;;;;;5245721;27;20456;-75
2024/04/15 06:53:00;;;;;;;8.82;1.73;;;14.70;99.90;;;;;;5244626;27;20010;-75
2024/04/15 06:55:26;;;;;;;8.95;2.00;;;14.70;99.90;;;;;;5244802;27;20337;-76
2024/04/15 06:57:55;;;;;;;9.88;1.58;;;14.70;99.90;;;;;;5276674;27;20006;-76
2024/04/15 07:00:21;;;;;;;6.72;2.05;;;14.70;99.90;;;;;;5278339;27;20064;-75
2024/04/15 07:02:50;;;;;;;3.17;1.58;;;14.70;99.90;;;;;;5264495;27;20362;-76
2024/04/15 07:05:16;;;;;;;7.68;1.77;;;14.70;99.90;;;;;;5243180;27;20078;-75
2024/04/15 07:07:44;;;;;;;12.63;2.25;;;14.70;99.90;;;;;;5259316;27;20018;-77
2024/04/15 07:10:13;;;;;;;9.88;2.28;;;14.60;99.90;;;;;;5276796;27;20106;-75
2024/04/15 07:12:42;;;;;;;11.93;2.28;;;14.70;99.90;;;;;;5276908;27;20072;-74
2024/04/15 07:15:07;;;;;;;6.15;2.20;;;14.80;99.90;;;;;;5267186;27;20006;-75
2024/04/15 07:17:38;;;;;;;10.68;2.42;;;14.70;99.90;;;;;;5264072;27;20371;-76
2024/04/15 07:20:04;;;;;;;10.38;2.05;;;14.70;99.90;;;;;;5277085;27;19999;-76
2024/04/15 07:22:33;;;;;;;6.90;2.30;;;14.70;99.90;;;;;;5242850;27;20007;-76
2024/04/15 07:25:02;;;;;;;6.88;1.80;;;14.80;99.90;;;;;;5243019;27;19999;-77
2024/04/15 07:27:34;;;;;;;8.20;1.80;;;14.90;99.90;;;;;;5243166;27;20006;-75
2024/04/15 07:30:00;;;;;;;6.57;1.95;;;15.00;99.90;;;;;;5258892;27;20006;-76
2024/04/15 07:32:28;;;;;;;6.95;2.47;;;15.00;99.90;;;;;;5274886;27;20013;-76
2024/04/15 07:34:54;;;;;;;7.22;1.80;;;15.10;99.90;;;;;;5246659;27;19999;-76
2024/04/15 07:37:22;;;;;;;4.88;1.83;;;15.20;99.90;;;;;;5251176;27;20003;-75
2024/04/15 07:39:49;;;;;;;12.90;2.45;;;15.20;99.90;;;;;;5243629;27;20099;-76
2024/04/15 07:42:17;;;;;;;8.95;2.30;;;15.40;99.90;;;;;;5243140;27;20141;-76
2024/04/15 07:44:49;;;;;;;5.10;1.90;;;15.40;99.90;;;;;;5242951;27;19995;-76
2024/04/15 07:47:19;;;;;;;6.47;2.22;;;15.40;99.90;;;;;;5242691;27;20007;-77
2024/04/15 07:49:45;;;;;;;9.27;3.67;;;15.30;99.90;;;;;;5243021;27;20349;-76
2024/04/15 07:52:13;;;;;;;10.00;2.92;;;15.30;99.90;;;;;;5242481;27;20579;-75
2024/04/15 07:54:39;;;;;;;8.73;3.17;;;15.30;99.90;;;;;;5242634;27;20435;-75
2024/04/15 07:57:10;;;;;;;4.32;2.38;;;15.30;99.90;;;;;;5241191;27;20013;-77
2024/04/15 07:59:36;;;;;;;10.93;3.58;;;15.30;99.90;;;;;;5242238;27;20065;-74
2024/04/15 08:02:10;;;;;;;12.77;2.58;;;15.40;99.90;;;;;;5242742;27;20022;-76
2024/04/15 08:04:36;;;;;;;7.63;2.80;;;15.40;99.90;;;;;;5242065;27;20006;-75
2024/04/15 08:07:04;;;;;;;9.05;2.90;;;15.40;99.90;;;;;;5242126;27;19999;-76
2024/04/15 08:09:30;;;;;;;8.18;3.10;;;15.30;99.90;;;;;;5252339;27;20013;-74
2024/04/15 08:11:59;;;;;;;6.32;2.85;;;15.40;99.90;;;;;;5275906;27;20076;-76
2024/04/15 08:14:24;;;;;;;10.38;3.38;;;15.40;99.90;;;;;;5276579;27;20014;-75
2024/04/15 08:16:53;;;;;;;9.80;2.90;;;15.50;99.90;;;;;;5275183;27;20387;-75
2024/04/15 08:19:21;;;;;;;8.93;2.78;;;15.70;99.90;;;;;;5276150;27;19995;-75
2024/04/15 08:21:50;;;;;;;17.23;2.92;;;15.80;99.90;;;;;;5275933;27;20353;-75
2024/04/15 08:24:16;;;;;;;9.88;2.97;;;15.90;99.90;;;;;;5276282;27;20139;-76
2024/04/15 08:26:44;;;;;;;10.38;3.10;;;15.80;99.90;;;;;;5275476;27;20068;-75
2024/04/15 08:29:10;;;;;;;6.45;2.80;;;15.80;99.90;;;;;;5271930;27;19998;-76
2024/04/15 08:31:38;;;;;;;7.40;2.72;;;15.70;99.90;;;;;;5241655;27;20011;-76
2024/04/15 08:34:04;;;;;;;17.80;3.20;;;15.70;99.90;;;;;;5242267;27;19999;-76
2024/04/15 08:36:35;;;;;;;7.03;3.17;;;15.70;99.90;;;;;;5241030;27;20451;-76
2024/04/15 08:39:01;;;;;;;11.85;3.30;;;15.70;99.90;;;;;;5271514;27;20018;-75
2024/04/15 08:41:31;;;;;;;7.63;2.97;;;15.70;99.90;;;;;;5259574;27;20006;-76
2024/04/15 08:44:03;;;;;;;9.23;2.92;;;15.80;99.90;;;;;;5275777;27;20010;-76
2024/04/15 08:46:36;;;;;;;8.52;2.88;;;15.80;99.90;;;;;;5260143;27;20038;-76
2024/04/15 08:49:02;;;;;;;9.52;2.80;;;16.00;99.90;;;;;;5279478;27;19998;-74
2024/04/15 08:51:30;;;;;;;10.55;3.65;;;16.20;99.90;;;;;;5254010;27;20026;-74
2024/04/15 08:53:59;;;;;;;10.25;2.88;;;16.30;99.90;;;;;;5245030;27;20046;-76
2024/04/15 08:56:29;;;;;;;5.53;2.92;;;16.40;99.90;;;;;;5268262;27;20336;-75
2024/04/15 08:58:56;;;;;;;10.15;2.80;;;16.80;99.90;;;;;;5268712;27;20114;-75
2024/04/15 09:01:24;;;;;;;8.05;3.00;;;17.20;99.90;;;;;;5245102;27;20009;-75
2024/04/15 09:03:51;;;;;;;9.77;2.80;;;17.40;99.90;;;;;;5245455;27;20035;-75
2024/04/15 09:06:19;;;;;;;13.20;3.78;;;17.60;99.90;;;;;;5246818;27;20084;-76
2024/04/15 09:08:45;;;;;;;9.55;3.13;;;17.80;99.90;;;;;;5244948;27;20003;-75
2024/04/15 09:11:18;;;;;;;6.90;3.20;;;17.90;99.90;;;;;;5247043;27;20018;-77
2024/04/15 09:13:44;;;;;;;14.93;3.35;;;17.90;99.90;;;;;;5256259;27;20078;-76
2024/04/15 09:16:12;;;;;;;8.52;2.90;;;17.80;99.90;;;;;;5257004;27;20440;-76
2024/04/15 09:18:39;;;;;;;7.15;2.70;;;17.70;99.90;;;;;;5263906;27;20091;-75
2024/04/15 09:21:08;;;;;;;10.05;2.78;;;17.60;99.90;;;;;;5278410;27;20046;-75
2024/04/15 09:23:33;;;;;;;8.07;2.67;;;17.70;99.90;;;;;;5278545;27;19999;-75
2024/04/15 09:26:02;;;;;;;6.35;3.10;;;17.90;99.90;;;;;;5253174;27;20042;-76
2024/04/15 09:28:30;;;;;;;11.90;3.03;;;18.10;99.90;;;;;;5245134;27;20005;-76
2024/04/15 09:30:59;;;;;;;16.48;3.28;;;18.40;99.90;;;;;;5270141;27;20087;-76
2024/04/15 09:33:25;;;;;;;10.82;3.70;;;18.80;99.90;;;;;;5271551;27;20021;-77
2024/04/15 09:35:55;;;;;;;6.25;3.03;;;19.40;99.90;;;;;;5263167;27;20058;-76
2024/04/15 09:38:23;;;;;;;6.53;2.63;;;20.70;99.90;;;;;;5244080;27;19999;-77
2024/04/15 09:40:54;;;;;;;6.22;2.58;;;22.80;99.90;;;;;;5271834;27;20416;-77
2024/04/15 09:43:20;;;;;;;14.50;3.13;;;23.20;99.90;;;;;;5278119;27;20005;-76
2024/04/15 09:45:51;;;;;;;7.68;2.13;;;22.50;99.90;;;;;;5281829;27;20002;-76
2024/04/15 09:48:22;;;;;;;9.70;3.13;;;21.70;99.90;;;;;;5280054;27;20471;-77
2024/04/15 09:50:55;;;;;;;5.75;2.47;;;21.20;99.90;;;;;;5278805;27;19998;-76
2024/04/15 09:53:30;;;;;;;7.13;2.50;;;20.60;99.90;;;;;;5247657;27;20000;-76
2024/04/15 09:56:04;;;;;;;6.30;2.80;;;20.00;99.90;;;;;;5245918;27;20483;-76
2024/04/15 09:58:33;;;;;;;7.95;2.95;;;19.50;99.90;;;;;;5245739;27;19995;-75
2024/04/15 10:01:06;;;;;;;6.45;2.70;;;19.00;99.90;;;;;;5247769;27;20003;-75
2024/04/15 10:03:34;;;;;;;8.00;2.42;;;18.40;99.90;;;;;;5246492;27;20073;-75
2024/04/15 10:06:06;;;;;;;9.02;2.60;;;18.10;99.90;;;;;;5246138;27;20352;-76
2024/04/15 10:08:32;;;;;;;7.97;2.47;;;18.10;99.90;;;;;;5246239;27;20483;-76
2024/04/15 10:11:01;;;;;;;9.45;2.67;;;18.20;99.90;;;;;;5243734;27;20011;-76
2024/04/15 10:13:27;;;;;;;15.85;2.55;;;18.30;99.90;;;;;;5242857;27;19999;-75
2024/04/15 10:16:04;;;;;;;10.93;2.78;;;18.90;99.90;;;;;;5244798;27;20003;-75
2024/04/15 10:18:30;;;;;;;10.68;2.47;;;20.20;99.90;;;;;;5243142;27;20575;-76
2024/04/15 10:20:59;;;;;;;6.20;1.85;;;21.60;99.90;;;;;;5244447;27;20073;-76
2024/04/15 10:23:28;;;;;;;5.90;1.55;;;22.90;99.90;;;;;;5244738;27;20007;-75
2024/04/15 10:25:56;;;;;;;6.57;1.92;;;23.30;98.20;;;;;;5246335;27;20014;-76
2024/04/15 10:28:22;;;;;;;5.63;1.90;;;23.00;96.30;;;;;;5259204;27;20459;-75
2024/04/15 10:30:51;;;;;;;5.75;1.60;;;22.30;96.60;;;;;;5254457;27;20078;-76
2024/04/15 10:33:20;;;;;;;4.47;1.45;;;21.70;96.80;;;;;;5273911;27;20003;-75
2024/04/15 10:35:52;;;;;;;4.20;1.85;;;21.30;97.40;;;;;;5263725;27;20341;-75
2024/04/15 10:38:18;;;;;;;8.02;1.60;;;20.90;97.50;;;;;;5244047;27;20471;-75
2024/04/15 10:40:49;;;;;;;4.32;1.60;;;20.30;97.90;;;;;;5268766;27;20006;-76
2024/04/15 10:43:16;;;;;;;4.32;1.33;;;20.00;98.50;;;;;;5277721;27;20006;-76
2024/04/15 10:45:44;;;;;;;8.45;1.50;;;19.60;99.30;;;;;;5277532;27;20030;-76
2024/04/15 10:48:10;;;;;;;10.95;2.40;;;19.30;99.90;;;;;;5277845;27;20026;-76
2024/04/15 10:50:42;;;;;;;5.47;1.55;;;19.10;99.90;;;;;;5286944;27;20050;-76
2024/04/15 10:53:08;;;;;;;4.70;1.75;;;19.00;99.90;;;;;;5264515;27;20017;-76
2024/04/15 10:55:37;;;;;;;8.02;1.83;;;19.00;99.90;;;;;;5255172;27;19999;-76
2024/04/15 10:58:08;;;;;;;4.50;2.03;;;19.10;99.90;;;;;;5261711;27;20047;-75
2024/04/15 11:00:37;;;;;;;6.53;1.20;;;19.00;99.90;;;;;;5266382;27;20042;-75
2024/04/15 11:03:05;;;;;;;5.43;1.70;;;19.00;99.80;;;;;;5266949;27;20063;-75
2024/04/15 11:05:34;;;;;;;4.65;1.63;;;18.90;99.90;;;;;;5246487;27;20003;-74
2024/04/15 11:08:03;;;;;;;4.35;1.67;;;18.80;99.90;;;;;;5244328;27;20003;-77
2024/04/15 11:10:32;;;;;;;3.72;1.60;;;18.80;99.90;;;;;;5243422;27;20432;-75
2024/04/15 11:12:58;;;;;;;9.18;2.00;;;19.00;99.90;;;;;;5243893;27;20035;-76
2024/04/15 11:15:26;;;;;;;11.73;1.65;;;19.50;99.90;;;;;;5243964;27;20039;-76
2024/04/15 11:17:53;;;;;;;2.83;1.38;;;19.90;99.90;;;;;;5243819;27;20005;-75
2024/04/15 11:20:23;;;;;;;7.47;1.95;;;20.00;99.60;;;;;;5243914;27;20018;-76
2024/04/15 11:22:49;;;;;;;6.00;1.83;;;20.00;99.10;;;;;;5243048;27;20522;-75
2024/04/15 11:25:21;;;;;;;5.38;1.60;;;19.90;98.90;;;;;;5243338;27;20011;-75
2024/04/15 11:27:50;;;;;;;4.25;1.20;;;19.90;98.80;;;;;;5244677;27;19995;-75
2024/04/15 11:30:21;;;;;;;6.07;2.03;;;19.80;98.90;;;;;;5257592;27;20043;-77
2024/04/15 11:32:47;;;;;;;10.27;2.00;;;19.90;99.70;;;;;;5243317;27;20014;-77
2024/04/15 11:35:16;;;;;;;5.90;1.90;;;19.90;99.60;;;;;;5260978;27;20006;-76
2024/04/15 11:37:42;;;;;;;8.10;1.88;;;19.90;99.50;;;;;;5276827;27;20002;-76
2024/04/15 11:40:13;;;;;;;7.45;2.08;;;19.80;99.10;;;;;;5272858;27;20081;-75
2024/04/15 11:42:41;;;;;;;11.23;1.90;;;19.40;99.40;;;;;;5258038;27;20018;-75
2024/04/15 11:45:14;;;;;;;6.28;1.75;;;19.20;98.50;;;;;;5278919;27;20355;-76
2024/04/15 11:47:40;;;;;;;4.32;1.63;;;19.10;98.80;;;;;;5251579;27;20735;-76
2024/04/15 11:50:09;;;;;;;4.07;1.35;;;18.90;98.80;;;;;;5242667;27;20077;-77
2024/04/15 11:52:37;;;;;;;10.40;2.00;;;18.80;99.10;;;;;;5242607;27;20005;-76
2024/04/15 11:55:07;;;;;;;9.68;2.67;;;18.80;99.10;;;;;;5242973;27;20077;-77
2024/04/15 11:57:33;;;;;;;9.98;1.85;;;18.70;99.20;;;;;;5242297;27;19995;-77
2024/04/15 12:00:04;;;;;;;6.00;2.17;;;18.60;99.00;;;;;;5268950;27;20007;-77
2024/04/15 12:02:30;;;;;;;10.32;1.80;;;18.50;99.20;;;;;;5275643;27;20045;-76
2024/04/15 12:04:58;;;;;;;11.52;2.53;;;18.50;99.20;;;;;;5276397;27;19998;-76
2024/04/15 12:07:24;;;;;;;5.22;1.90;;;18.70;99.90;;;;;;5275835;27;19999;-76
2024/04/15 12:09:54;;;;;;;8.20;2.03;;;19.30;99.90;;;;;;5275661;27;20009;-76
2024/04/15 12:12:20;;;;;;;13.43;2.17;;;20.00;99.90;;;;;;5276180;27;20021;-76
2024/04/15 12:14:48;;;;;;;11.80;2.05;;;20.50;99.90;;;;;;5275786;27;20050;-75
2024/04/15 12:17:17;;;;;;;6.03;2.10;;;20.70;99.90;;;;;;5261268;27;20006;-76
2024/04/15 12:19:45;;;;;;;7.93;2.58;;;21.00;99.90;;;;;;5279353;27;20009;-76
2024/04/15 12:22:14;;;;;;;7.90;2.40;;;20.80;99.90;;;;;;5250265;27;20003;-76
2024/04/15 12:24:39;;;;;;;4.38;1.77;;;20.40;99.90;;;;;;5244077;27;20003;-76
2024/04/15 12:27:08;;;;;;;7.40;2.67;;;20.50;99.90;;;;;;5244879;27;20003;-76
2024/04/15 12:29:34;;;;;;;9.35;1.85;;;20.60;99.90;;;;;;5254798;27;20002;-76
2024/04/15 12:32:02;;;;;;;8.93;2.33;;;20.50;99.90;;;;;;5279204;27;20073;-76
2024/04/15 12:34:32;;;;;;;7.28;2.28;;;20.70;99.90;;;;;;5249297;27;20002;-76
2024/04/15 12:37:01;;;;;;;8.10;2.03;;;20.70;99.90;;;;;;5245029;27;20456;-75
2024/04/15 12:39:27;;;;;;;7.75;1.90;;;20.80;99.90;;;;;;5245205;27;20348;-75
2024/04/15 12:41:55;;;;;;;10.20;2.13;;;20.80;99.90;;;;;;5245906;27;20003;-75
2024/04/15 12:44:23;;;;;;;9.95;1.90;;;20.60;99.90;;;;;;5246107;27;19999;-75
2024/04/15 12:46:52;;;;;;;11.88;2.83;;;20.10;99.90;;;;;;5245504;27;20078;-75
2024/04/15 12:49:17;;;;;;;15.50;2.17;;;19.60;99.90;;;;;;5245111;27;20002;-75